Time;durP1;ratioP1;P1;durP2;ratioP2;P2;SDS_P1;SDS_P2;PMS_P1;PMS_P2;Temp;Humidity;BMP_temperature;BMP_pressure;BME280_temperature;BME280_humidity;BME280_pressure;Samples;Min_cycle;Max_cycle;Signal;HPM_P1;HPM_P2
2024/03/10 00:00:41;;;;;;;10.10;6.35;;;4.60;99.90;;;;;;5037096;28;20030;-73
2024/03/10 00:03:10;;;;;;;10.38;5.88;;;4.60;99.90;;;;;;5046441;28;20039;-72
2024/03/10 00:05:38;;;;;;;8.25;5.40;;;4.70;99.90;;;;;;5044679;28;20025;-73
2024/03/10 00:08:04;;;;;;;;;;;4.70;99.90;;;;;;5044366;28;20028;-73
2024/03/10 00:10:34;;;;;;;8.45;6.03;;;4.70;99.90;;;;;;5043187;28;19912;-73
2024/03/10 00:12:59;;;;;;;10.13;5.70;;;4.60;99.90;;;;;;5051428;28;20149;-72
2024/03/10 00:15:25;;;;;;;9.93;6.28;;;4.60;99.90;;;;;;5047238;28;20635;-72
2024/03/10 00:17:51;;;;;;;11.13;6.13;;;4.50;99.90;;;;;;5050726;28;20064;-72
2024/03/10 00:20:19;;;;;;;12.82;7.03;;;4.60;99.90;;;;;;5048364;28;20192;-73
2024/03/10 00:22:45;;;;;;;9.88;6.43;;;4.70;99.90;;;;;;5044785;28;20087;-72
2024/03/10 00:25:11;;;;;;;9.57;5.93;;;4.70;99.90;;;;;;5046308;28;20147;-73
2024/03/10 00:27:36;;;;;;;8.95;6.00;;;4.70;99.90;;;;;;5049784;28;20433;-72
2024/03/10 00:30:07;;;;;;;7.13;5.35;;;4.70;99.90;;;;;;5049743;28;20107;-72
2024/03/10 00:32:33;;;;;;;7.05;5.38;;;4.60;99.90;;;;;;5045864;28;20503;-72
2024/03/10 00:34:58;;;;;;;8.50;5.78;;;4.60;99.90;;;;;;5048607;28;20021;-72
2024/03/10 00:37:24;;;;;;;8.60;6.30;;;4.70;99.90;;;;;;5051781;28;20053;-72
2024/03/10 00:39:50;;;;;;;10.07;6.38;;;4.70;99.90;;;;;;5051258;28;20036;-73
2024/03/10 00:42:16;;;;;;;8.32;5.50;;;4.70;99.90;;;;;;5048863;28;20029;-73
2024/03/10 00:44:41;;;;;;;12.25;5.88;;;4.60;99.90;;;;;;5042970;28;20032;-72
2024/03/10 00:47:07;;;;;;;10.27;5.32;;;4.50;99.90;;;;;;5048258;28;20162;-72
2024/03/10 00:49:33;;;;;;;5.75;4.68;;;4.50;99.90;;;;;;5047669;28;20044;-73
2024/03/10 00:51:59;;;;;;;6.18;4.78;;;4.50;99.90;;;;;;5049292;28;20017;-72
2024/03/10 00:54:25;;;;;;;7.97;5.30;;;4.50;99.90;;;;;;5047372;28;20037;-71
2024/03/10 00:56:50;;;;;;;6.03;4.80;;;4.60;99.90;;;;;;5049191;28;20229;-72
2024/03/10 00:59:16;;;;;;;8.20;4.78;;;4.60;99.90;;;;;;5049758;28;20040;-72
2024/03/10 01:01:42;;;;;;;7.32;5.70;;;4.50;99.90;;;;;;5047010;28;20036;-73
2024/03/10 01:04:08;;;;;;;8.50;5.03;;;4.50;99.90;;;;;;5046738;28;20102;-72
2024/03/10 01:06:34;;;;;;;8.02;5.60;;;4.40;99.90;;;;;;5046614;28;20035;-73
2024/03/10 01:08:59;;;;;;;8.10;5.35;;;4.40;99.90;;;;;;5047921;28;20536;-70
2024/03/10 01:11:26;;;;;;;8.88;5.15;;;4.40;99.90;;;;;;5049794;28;20090;-71
2024/03/10 01:13:52;;;;;;;8.40;4.93;;;4.30;99.90;;;;;;5047329;28;20036;-72
2024/03/10 01:16:18;;;;;;;7.70;5.50;;;4.40;99.90;;;;;;5047375;28;20029;-72
2024/03/10 01:18:44;;;;;;;11.63;6.85;;;4.40;99.90;;;;;;5049788;28;20059;-72
2024/03/10 01:21:10;;;;;;;9.13;5.10;;;4.30;99.90;;;;;;5049551;28;20441;-71
2024/03/10 01:23:35;;;;;;;6.57;5.13;;;4.40;99.90;;;;;;5048841;28;20064;-72
2024/03/10 01:26:01;;;;;;;7.10;4.88;;;4.40;99.90;;;;;;5047035;28;20039;-72
2024/03/10 01:28:27;;;;;;;5.60;4.65;;;4.40;99.90;;;;;;5047609;28;20094;-71
2024/03/10 01:30:53;;;;;;;9.50;5.63;;;4.40;99.90;;;;;;5048298;28;20030;-73
2024/03/10 01:33:19;;;;;;;7.55;4.75;;;4.50;99.90;;;;;;5048845;28;20048;-72
2024/03/10 01:35:45;;;;;;;7.05;4.95;;;4.50;99.90;;;;;;5047690;28;20056;-72
2024/03/10 01:38:11;;;;;;;7.00;4.43;;;4.40;99.90;;;;;;5044310;28;20021;-72
2024/03/10 01:40:37;;;;;;;7.95;4.75;;;4.40;99.90;;;;;;5045554;28;20025;-72
2024/03/10 01:43:03;;;;;;;8.20;5.50;;;4.40;99.90;;;;;;5045444;28;20036;-72
2024/03/10 01:45:29;;;;;;;8.85;5.00;;;4.40;99.90;;;;;;5048680;28;20025;-72
2024/03/10 01:47:55;;;;;;;6.32;4.53;;;4.40;99.90;;;;;;5041735;28;20020;-72
2024/03/10 01:50:22;;;;;;;5.72;4.32;;;4.50;99.90;;;;;;5047921;28;20500;-73
2024/03/10 01:52:48;;;;;;;7.28;5.60;;;4.50;99.90;;;;;;5046539;28;20029;-71
2024/03/10 01:55:17;;;;;;;8.55;4.97;;;4.50;99.90;;;;;;5048829;28;20203;-72
2024/03/10 01:57:45;;;;;;;7.72;5.35;;;4.40;99.90;;;;;;5047694;28;20029;-73
2024/03/10 02:00:13;;;;;;;7.35;5.00;;;4.40;99.90;;;;;;5047087;28;20135;-72
2024/03/10 02:02:42;;;;;;;7.32;5.20;;;4.30;99.90;;;;;;5045349;28;20041;-72
2024/03/10 02:05:09;;;;;;;7.00;5.10;;;4.30;99.90;;;;;;5047324;28;20025;-73
2024/03/10 02:07:35;;;;;;;9.18;5.47;;;4.30;99.90;;;;;;5044312;28;20048;-72
2024/03/10 02:10:02;;;;;;;6.78;5.25;;;4.20;99.90;;;;;;5047801;28;20281;-72
2024/03/10 02:12:28;;;;;;;6.70;4.95;;;4.20;99.90;;;;;;5047285;28;20124;-71
2024/03/10 02:15:01;;;;;;;6.70;4.93;;;4.20;99.90;;;;;;5044758;28;20132;-73
2024/03/10 02:17:27;;;;;;;7.45;4.95;;;4.30;99.90;;;;;;5048847;28;20035;-72
2024/03/10 02:19:53;;;;;;;5.75;4.57;;;4.20;99.90;;;;;;5051381;28;20025;-72
2024/03/10 02:22:21;;;;;;;6.60;4.35;;;4.20;99.90;;;;;;5049908;28;20029;-71
2024/03/10 02:24:50;;;;;;;8.02;5.95;;;4.10;99.90;;;;;;5051912;28;20056;-74
2024/03/10 02:27:17;;;;;;;7.38;4.95;;;4.10;99.90;;;;;;5054614;28;20035;-73
2024/03/10 02:48:53;;;;;;;8.85;5.68;;;4.20;99.90;;;;;;5050903;28;20043;-74
2024/03/10 02:51:20;;;;;;;8.88;5.05;;;4.20;99.90;;;;;;5049040;28;20084;-75
2024/03/10 02:53:46;;;;;;;6.97;5.00;;;4.10;99.90;;;;;;5051922;28;20800;-74
2024/03/10 02:56:13;;;;;;;8.20;5.40;;;4.20;99.90;;;;;;5050273;28;20029;-75
2024/03/10 02:58:39;;;;;;;9.02;5.20;;;4.10;99.90;;;;;;5053099;28;20025;-77
2024/03/10 03:01:07;;;;;;;10.38;4.72;;;4.10;99.90;;;;;;5051332;28;20063;-76
2024/03/10 03:03:34;;;;;;;6.28;4.85;;;4.00;99.90;;;;;;5054084;28;20040;-77
2024/03/10 03:05:59;;;;;;;8.45;4.72;;;3.90;99.90;;;;;;5049218;28;20884;-74
2024/03/10 03:08:25;;;;;;;10.95;4.60;;;3.80;99.90;;;;;;5054558;28;20039;-74
2024/03/10 03:10:51;;;;;;;8.75;4.75;;;3.80;99.90;;;;;;5052224;28;20210;-74
2024/03/10 03:13:19;;;;;;;6.20;4.78;;;3.70;99.90;;;;;;5049615;28;20449;-72
2024/03/10 03:15:45;;;;;;;7.13;5.25;;;3.60;99.90;;;;;;5051838;28;20031;-75
2024/03/10 03:18:10;;;;;;;5.07;3.65;;;3.50;99.90;;;;;;5052228;28;20092;-75
2024/03/10 03:20:36;;;;;;;10.32;5.10;;;3.30;99.90;;;;;;5050767;28;20027;-75
2024/03/10 03:23:04;;;;;;;7.97;4.90;;;3.30;99.90;;;;;;5047067;28;20026;-75
2024/03/10 03:25:30;;;;;;;6.68;5.43;;;3.30;99.90;;;;;;5053245;28;20021;-74
2024/03/10 03:27:56;;;;;;;6.90;5.32;;;3.20;99.90;;;;;;5048139;28;20479;-76
2024/03/10 03:30:25;;;;;;;11.98;5.22;;;3.20;99.90;;;;;;5045788;28;20022;-74
2024/03/10 03:32:51;;;;;;;5.97;4.32;;;3.20;99.90;;;;;;5047729;28;20044;-72
2024/03/10 03:35:17;;;;;;;6.35;4.85;;;3.30;99.90;;;;;;5046414;28;20021;-73
2024/03/10 03:37:45;;;;;;;7.60;4.70;;;3.30;99.90;;;;;;5044475;28;20025;-73
2024/03/10 03:40:13;;;;;;;6.45;4.38;;;3.40;99.90;;;;;;5044554;28;20385;-72
2024/03/10 03:42:39;;;;;;;5.95;4.35;;;3.40;99.90;;;;;;5044761;28;20644;-72
2024/03/10 03:45:06;;;;;;;8.93;5.55;;;3.50;99.90;;;;;;5041893;28;20048;-72
2024/03/10 03:47:32;;;;;;;6.55;4.38;;;3.50;99.90;;;;;;5046759;28;20041;-73
2024/03/10 03:49:57;;;;;;;9.05;5.57;;;3.50;99.90;;;;;;5047448;28;20043;-72
2024/03/10 03:52:23;;;;;;;7.53;5.03;;;3.50;99.90;;;;;;5045648;28;20028;-72
2024/03/10 03:54:51;;;;;;;6.53;4.63;;;3.50;99.90;;;;;;5047044;28;20025;-72
2024/03/10 03:57:17;;;;;;;4.10;3.63;;;3.60;99.90;;;;;;5047306;28;20056;-72
2024/03/10 03:59:43;;;;;;;5.53;4.25;;;3.60;99.90;;;;;;5045421;28;20607;-72
2024/03/10 04:02:09;;;;;;;6.32;4.60;;;3.60;99.90;;;;;;5039240;28;20036;-71
2024/03/10 04:04:35;;;;;;;7.45;5.43;;;3.50;99.90;;;;;;5047448;28;20104;-72
2024/03/10 04:07:04;;;;;;;5.75;3.83;;;3.40;99.90;;;;;;5047660;28;20033;-72
2024/03/10 04:09:30;;;;;;;5.68;4.15;;;3.30;99.90;;;;;;5048333;28;20060;-74
2024/03/10 04:11:56;;;;;;;7.63;5.35;;;3.30;99.90;;;;;;5042177;28;20486;-73
2024/03/10 04:14:23;;;;;;;8.82;5.30;;;3.40;99.90;;;;;;5046287;28;20061;-73
2024/03/10 04:16:50;;;;;;;6.38;4.53;;;3.50;99.90;;;;;;5041378;28;20033;-74
2024/03/10 04:19:16;;;;;;;6.50;4.60;;;3.60;99.90;;;;;;5042458;28;20029;-72
2024/03/10 04:21:42;;;;;;;9.05;4.68;;;3.60;99.90;;;;;;5047148;28;21970;-73
2024/03/10 04:24:10;;;;;;;7.03;4.60;;;3.60;99.90;;;;;;5039206;28;20033;-72
2024/03/10 04:26:40;;;;;;;6.38;4.70;;;3.60;99.90;;;;;;5043693;28;20036;-72
2024/03/10 04:29:06;;;;;;;4.43;3.95;;;3.50;99.90;;;;;;5044056;28;20494;-72
2024/03/10 04:31:32;;;;;;;5.07;4.25;;;3.30;99.90;;;;;;5037491;28;20063;-73
2024/03/10 04:33:58;;;;;;;8.93;4.80;;;3.10;99.90;;;;;;5026547;28;20121;-73
2024/03/10 04:36:24;;;;;;;7.05;3.85;;;3.00;99.90;;;;;;5026029;28;20542;-73
2024/03/10 04:38:51;;;;;;;6.15;3.75;;;2.90;99.90;;;;;;5028132;28;20022;-73
2024/03/10 04:41:17;;;;;;;5.45;3.60;;;2.80;99.90;;;;;;5025627;28;20029;-72
2024/03/10 04:43:44;;;;;;;4.35;3.72;;;2.70;99.90;;;;;;5021338;28;20029;-74
2024/03/10 04:46:09;;;;;;;7.70;4.10;;;2.90;99.90;;;;;;5026483;28;20048;-73
2024/03/10 04:48:36;;;;;;;4.93;3.92;;;3.00;99.90;;;;;;5028761;28;20095;-73
2024/03/10 04:51:01;;;;;;;4.78;3.28;;;2.90;99.90;;;;;;5027319;28;20025;-72
2024/03/10 04:53:27;;;;;;;5.63;3.40;;;2.80;99.90;;;;;;5026804;28;20136;-73
2024/03/10 04:55:53;;;;;;;4.25;3.55;;;2.70;99.90;;;;;;5026515;28;20109;-72
2024/03/10 04:58:19;;;;;;;4.50;3.40;;;2.70;99.90;;;;;;5024915;28;20555;-73
2024/03/10 05:00:44;;;;;;;5.32;3.65;;;2.60;99.90;;;;;;5030554;28;20068;-72
2024/03/10 05:03:10;;;;;;;5.10;3.72;;;2.60;99.90;;;;;;5045129;28;20474;-74
2024/03/10 05:05:37;;;;;;;6.85;4.00;;;2.60;99.90;;;;;;5047625;28;20059;-72
2024/03/10 05:08:03;;;;;;;5.32;3.95;;;2.60;99.90;;;;;;5048107;28;20078;-72
2024/03/10 05:10:28;;;;;;;7.45;4.50;;;2.70;99.90;;;;;;5044378;28;20029;-75
2024/03/10 05:12:54;;;;;;;4.35;3.53;;;2.70;99.90;;;;;;5046622;28;20052;-72
2024/03/10 05:15:20;;;;;;;4.55;4.13;;;2.80;99.90;;;;;;5042948;28;20512;-73
2024/03/10 05:17:45;;;;;;;4.65;4.10;;;2.80;99.90;;;;;;5045051;28;20123;-72
2024/03/10 05:20:14;;;;;;;6.22;4.05;;;2.80;99.90;;;;;;5041314;28;20033;-72
2024/03/10 05:22:40;;;;;;;4.80;3.63;;;3.00;99.90;;;;;;5045400;28;20514;-74
2024/03/10 05:25:09;;;;;;;4.47;3.03;;;3.10;99.90;;;;;;5045720;28;20029;-71
2024/03/10 05:27:37;;;;;;;3.92;3.25;;;3.10;99.90;;;;;;5045812;28;20075;-73
2024/03/10 05:30:03;;;;;;;5.70;3.53;;;3.20;99.90;;;;;;5042471;28;20104;-72
2024/03/10 05:32:29;;;;;;;3.70;3.28;;;3.20;99.90;;;;;;5026352;28;20034;-75
2024/03/10 05:34:56;;;;;;;6.05;3.67;;;3.10;99.90;;;;;;5025809;28;20047;-72
2024/03/10 05:37:22;;;;;;;5.35;2.80;;;3.00;99.90;;;;;;5024317;28;20033;-72
2024/03/10 05:39:48;;;;;;;5.50;3.65;;;3.00;99.90;;;;;;5023856;28;20033;-75
2024/03/10 05:42:14;;;;;;;5.22;4.40;;;2.80;99.90;;;;;;5025679;28;20047;-74
2024/03/10 05:44:43;;;;;;;5.22;3.65;;;2.80;99.90;;;;;;5023838;28;20029;-73
2024/03/10 05:47:13;;;;;;;;;;;2.80;99.90;;;;;;5024161;28;20033;-73
2024/03/10 05:49:39;;;;;;;5.15;3.53;;;2.80;99.90;;;;;;5027756;28;20004;-75
2024/03/10 05:52:05;;;;;;;4.43;3.47;;;2.80;99.90;;;;;;5022886;28;20569;-72
2024/03/10 05:54:30;;;;;;;4.85;3.30;;;2.70;99.90;;;;;;5023142;28;20036;-72
2024/03/10 05:56:56;;;;;;;7.55;4.40;;;2.80;99.90;;;;;;5023621;28;20537;-72
2024/03/10 05:59:21;;;;;;;5.53;3.83;;;2.80;99.90;;;;;;5026307;28;20037;-71
2024/03/10 06:01:47;;;;;;;3.53;3.22;;;2.80;99.90;;;;;;5036692;28;20032;-72
2024/03/10 06:04:13;;;;;;;5.45;3.67;;;2.80;99.90;;;;;;5042726;28;20037;-71
2024/03/10 06:06:38;;;;;;;5.32;3.15;;;2.80;99.90;;;;;;5039992;28;20056;-71
2024/03/10 06:09:07;;;;;;;8.18;4.10;;;2.90;99.90;;;;;;5043862;28;20394;-72
2024/03/10 06:11:33;;;;;;;4.63;3.92;;;2.90;99.90;;;;;;5046558;28;20033;-72
2024/03/10 06:14:00;;;;;;;6.07;4.13;;;2.80;99.90;;;;;;5043745;28;20037;-71
2024/03/10 06:16:26;;;;;;;5.28;3.63;;;2.70;99.90;;;;;;5040467;28;20394;-72
2024/03/10 06:26:54;;;;;;;7.13;3.47;;;2.70;99.90;;;;;;5045759;28;20549;-72
2024/03/10 06:29:24;;;;;;;5.60;3.28;;;2.80;99.90;;;;;;5043140;28;20041;-72
2024/03/10 06:31:50;;;;;;;4.25;3.75;;;2.80;99.90;;;;;;5043034;28;20115;-72
2024/03/10 06:34:17;;;;;;;3.53;3.22;;;2.90;99.90;;;;;;5040587;28;20695;-71
2024/03/10 06:36:43;;;;;;;6.15;3.60;;;3.00;99.90;;;;;;5042976;28;20021;-72
2024/03/10 06:39:10;;;;;;;5.93;3.67;;;2.90;99.90;;;;;;5041977;28;20029;-73
2024/03/10 06:41:36;;;;;;;4.65;3.35;;;2.90;99.90;;;;;;5044787;28;20025;-72
2024/03/10 06:44:02;;;;;;;4.65;2.83;;;2.90;99.90;;;;;;5044984;28;20047;-72
2024/03/10 06:46:29;;;;;;;5.60;3.92;;;3.00;99.90;;;;;;5044049;28;20037;-72
2024/03/10 06:48:55;;;;;;;4.13;3.50;;;3.10;99.90;;;;;;5042615;28;20060;-72
2024/03/10 06:51:21;;;;;;;5.05;3.47;;;3.10;99.90;;;;;;5040354;28;20028;-72
2024/03/10 06:53:48;;;;;;;4.43;3.35;;;3.20;99.90;;;;;;5041369;28;20045;-71
2024/03/10 06:56:14;;;;;;;7.28;3.80;;;3.20;99.90;;;;;;5045322;28;20128;-72
2024/03/10 06:58:44;;;;;;;5.47;3.58;;;3.40;99.90;;;;;;5044102;28;20037;-72
2024/03/10 07:01:10;;;;;;;4.22;3.38;;;3.50;99.90;;;;;;5042764;28;20032;-72
2024/03/10 07:03:36;;;;;;;5.10;4.22;;;3.70;99.90;;;;;;5048187;28;20021;-70
2024/03/10 07:06:03;;;;;;;6.28;3.97;;;3.80;99.90;;;;;;5039853;28;20083;-73
2024/03/10 07:08:30;;;;;;;6.13;3.88;;;3.90;99.90;;;;;;5042040;28;20028;-72
2024/03/10 07:10:58;;;;;;;3.83;3.42;;;4.10;99.90;;;;;;5043453;28;20021;-74
2024/03/10 07:13:23;;;;;;;4.13;3.67;;;4.40;99.90;;;;;;5042894;28;20520;-73
2024/03/10 07:15:49;;;;;;;5.38;3.53;;;4.50;99.90;;;;;;5041395;28;20027;-72
2024/03/10 07:18:15;;;;;;;4.90;3.67;;;4.70;99.90;;;;;;5040679;28;20021;-73
2024/03/10 07:20:41;;;;;;;4.45;3.47;;;4.80;99.90;;;;;;5040189;28;20445;-74
2024/03/10 07:23:06;;;;;;;4.65;3.55;;;4.90;99.90;;;;;;5043232;28;20160;-72
2024/03/10 07:25:32;;;;;;;4.82;3.03;;;5.10;99.90;;;;;;5043012;28;20104;-72
2024/03/10 07:27:58;;;;;;;4.18;3.30;;;5.30;99.90;;;;;;5043666;28;20090;-72
2024/03/10 07:30:24;;;;;;;3.95;3.13;;;5.50;99.90;;;;;;5046622;28;20119;-74
2024/03/10 07:32:49;;;;;;;2.85;2.33;;;5.80;99.90;;;;;;5046073;28;20280;-72
2024/03/10 07:35:16;;;;;;;3.38;2.42;;;5.90;99.90;;;;;;5043655;28;20047;-73
2024/03/10 07:37:42;;;;;;;2.53;2.33;;;5.80;99.90;;;;;;5045536;28;20074;-72
2024/03/10 07:40:17;;;;;;;3.45;2.40;;;6.00;99.90;;;;;;5045843;28;20033;-74
2024/03/10 07:42:43;;;;;;;2.40;2.13;;;6.00;99.90;;;;;;5045856;28;20387;-73
2024/03/10 07:45:10;;;;;;;3.35;2.65;;;6.00;99.90;;;;;;5040862;28;20060;-72
2024/03/10 07:47:46;;;;;;;2.25;2.15;;;6.10;99.90;;;;;;5044259;28;20098;-73
2024/03/10 07:50:13;;;;;;;3.15;2.70;;;6.10;99.90;;;;;;5045773;28;20052;-73
2024/03/10 07:52:39;;;;;;;3.40;2.72;;;6.00;99.90;;;;;;5047861;28;20041;-73
2024/03/10 07:55:06;;;;;;;3.53;3.03;;;6.00;99.90;;;;;;5044280;28;20063;-74
2024/03/10 07:57:35;;;;;;;6.32;2.95;;;5.90;99.90;;;;;;5046855;28;20052;-73
2024/03/10 08:00:11;;;;;;;2.80;2.15;;;5.90;99.90;;;;;;5044084;28;20473;-73
2024/03/10 08:02:38;;;;;;;2.10;1.90;;;6.10;99.90;;;;;;5038996;28;20033;-73
2024/03/10 08:05:06;;;;;;;2.28;2.03;;;6.20;99.90;;;;;;5043243;28;20042;-73
2024/03/10 08:07:31;;;;;;;3.38;2.42;;;6.30;99.90;;;;;;5050364;28;20079;-75
2024/03/10 08:09:58;;;;;;;2.38;2.17;;;6.30;99.90;;;;;;5049323;28;20494;-72
2024/03/10 08:12:25;;;;;;;2.67;2.05;;;6.30;99.90;;;;;;5050068;28;20025;-73
2024/03/10 08:14:50;;;;;;;4.63;2.38;;;6.30;99.90;;;;;;5050854;28;20048;-72
2024/03/10 08:17:16;;;;;;;3.15;2.42;;;6.40;99.90;;;;;;5047808;28;22222;-74
2024/03/10 08:19:42;;;;;;;2.92;2.55;;;6.50;99.90;;;;;;5048222;28;20474;-74
2024/03/10 08:22:09;;;;;;;4.03;2.50;;;6.70;99.90;;;;;;5047883;28;20036;-73
2024/03/10 08:24:37;;;;;;;2.88;2.28;;;7.00;99.90;;;;;;5045861;28;20903;-72
2024/03/10 08:27:03;;;;;;;2.37;2.17;;;7.20;99.90;;;;;;5047057;28;20024;-72
2024/03/10 08:29:28;;;;;;;2.72;2.05;;;7.40;99.90;;;;;;5045210;28;20390;-74
2024/03/10 08:31:55;;;;;;;2.08;1.80;;;7.60;99.90;;;;;;5048768;28;20032;-74
2024/03/10 08:34:20;;;;;;;3.97;2.22;;;7.70;99.90;;;;;;5046040;28;20025;-76
2024/03/10 08:36:46;;;;;;;2.00;1.90;;;7.80;99.90;;;;;;5042004;28;20022;-72
2024/03/10 08:39:16;;;;;;;2.13;1.90;;;7.80;99.90;;;;;;5043488;28;20040;-72
2024/03/10 08:41:42;;;;;;;3.42;1.98;;;7.90;99.90;;;;;;5057397;28;20025;-72
2024/03/10 08:44:08;;;;;;;2.58;2.00;;;7.90;99.90;;;;;;5039975;28;20025;-73
2024/03/10 08:46:34;;;;;;;2.58;2.38;;;7.90;99.90;;;;;;5046723;28;20032;-73
2024/03/10 08:49:00;;;;;;;4.63;2.10;;;8.00;99.90;;;;;;5044260;28;20035;-73
2024/03/10 08:51:27;;;;;;;2.40;2.20;;;8.10;99.90;;;;;;5045122;28;20021;-72
2024/03/10 08:53:54;;;;;;;1.92;1.80;;;8.10;99.90;;;;;;5044959;28;20049;-71
2024/03/10 08:56:19;;;;;;;2.60;2.28;;;8.20;99.90;;;;;;5045033;28;20699;-75
2024/03/10 08:58:45;;;;;;;3.78;2.50;;;8.20;99.90;;;;;;5042162;28;20029;-72
2024/03/10 09:01:11;;;;;;;2.83;2.10;;;8.30;99.90;;;;;;5045664;28;20053;-73
2024/03/10 09:03:38;;;;;;;3.35;2.40;;;8.30;99.90;;;;;;5041632;28;20031;-74
2024/03/10 09:06:04;;;;;;;2.92;2.00;;;8.30;99.90;;;;;;5042962;28;20026;-74
2024/03/10 09:08:30;;;;;;;3.10;2.47;;;8.30;99.90;;;;;;5043021;28;20063;-72
2024/03/10 09:10:59;;;;;;;2.65;2.22;;;8.30;99.90;;;;;;5047200;28;20053;-74
2024/03/10 09:13:25;;;;;;;2.60;2.20;;;8.30;99.90;;;;;;5046320;28;20055;-72
2024/03/10 09:15:51;;;;;;;3.20;2.50;;;8.30;99.90;;;;;;5051899;28;20492;-73
2024/03/10 09:18:17;;;;;;;2.15;1.95;;;8.30;99.90;;;;;;5053306;28;20021;-73
2024/03/10 09:20:45;;;;;;;3.38;2.10;;;8.40;99.90;;;;;;5043656;28;20017;-73
2024/03/10 09:23:13;;;;;;;2.60;1.90;;;8.40;99.90;;;;;;5052240;28;20033;-72
2024/03/10 09:25:39;;;;;;;1.88;1.77;;;8.40;99.90;;;;;;5048394;28;20131;-73
2024/03/10 09:28:05;;;;;;;3.85;2.10;;;8.40;99.90;;;;;;5048716;28;20032;-72
2024/03/10 09:30:32;;;;;;;2.92;2.30;;;8.40;99.90;;;;;;5047071;28;20116;-74
2024/03/10 09:32:58;;;;;;;3.75;2.15;;;8.50;99.90;;;;;;5045190;28;20040;-74
2024/03/10 09:35:24;;;;;;;4.80;1.90;;;8.50;99.90;;;;;;5045263;28;20040;-73
2024/03/10 09:37:51;;;;;;;3.22;1.90;;;8.50;99.90;;;;;;5048076;28;20382;-72
2024/03/10 09:40:19;;;;;;;2.33;2.00;;;8.50;99.90;;;;;;5041768;28;20026;-73
2024/03/10 09:42:47;;;;;;;2.67;2.00;;;8.60;99.90;;;;;;5044401;28;20178;-73
2024/03/10 09:45:15;;;;;;;3.53;2.28;;;8.60;99.90;;;;;;5047280;28;20036;-73
2024/03/10 09:47:44;;;;;;;;;;;8.50;99.90;;;;;;5047208;28;20092;-73
2024/03/10 09:50:10;;;;;;;3.00;2.20;;;8.50;99.90;;;;;;5046091;28;19982;-74
2024/03/10 09:52:38;;;;;;;3.97;2.22;;;8.50;99.90;;;;;;5047987;28;20128;-73
2024/03/10 09:55:06;;;;;;;2.30;2.10;;;8.50;99.90;;;;;;5046456;28;20029;-73
2024/03/10 09:57:34;;;;;;;2.20;1.67;;;8.50;99.90;;;;;;5046538;28;20028;-73
2024/03/10 10:00:12;;;;;;;2.28;2.03;;;8.60;99.90;;;;;;5046230;28;20021;-72
2024/03/10 10:02:42;;;;;;;2.67;2.03;;;8.60;99.90;;;;;;5040761;28;20091;-73
2024/03/10 10:05:32;;;;;;;3.65;2.20;;;8.70;99.90;;;;;;5044850;28;20533;-73
2024/03/10 10:08:07;;;;;;;2.75;1.90;;;8.70;99.90;;;;;;5041427;28;20075;-72
2024/03/10 10:10:33;;;;;;;3.65;2.38;;;8.70;99.90;;;;;;5043731;28;20540;-72
2024/03/10 10:13:00;;;;;;;2.65;2.00;;;8.70;99.90;;;;;;5046295;28;20047;-72
2024/03/10 10:15:52;;;;;;;3.00;2.13;;;8.80;99.90;;;;;;5041364;28;20028;-72
2024/03/10 10:18:18;;;;;;;2.55;2.35;;;9.00;99.90;;;;;;5047734;28;20111;-74
2024/03/10 10:20:53;;;;;;;3.22;2.22;;;9.00;99.90;;;;;;5043982;28;20211;-72
2024/03/10 10:23:23;;;;;;;2.35;2.10;;;9.00;99.90;;;;;;5041233;28;20033;-74
2024/03/10 10:26:09;;;;;;;3.00;2.60;;;9.00;99.90;;;;;;5056696;28;20036;-75
2024/03/10 10:28:41;;;;;;;3.10;2.30;;;9.00;99.90;;;;;;5040268;28;20105;-74
2024/03/10 10:31:17;;;;;;;3.25;2.20;;;9.10;99.90;;;;;;5040564;28;20071;-73
2024/03/10 10:33:46;;;;;;;2.97;2.42;;;9.20;99.90;;;;;;5042676;28;20154;-75
2024/03/10 10:36:13;;;;;;;2.50;1.70;;;9.40;99.90;;;;;;5046347;28;20021;-73
2024/03/10 10:38:44;;;;;;;2.70;2.10;;;9.60;99.90;;;;;;5044802;28;20025;-74
2024/03/10 10:41:10;;;;;;;2.47;1.83;;;9.80;99.90;;;;;;5042670;28;20033;-73
2024/03/10 10:43:38;;;;;;;1.55;1.45;;;9.80;99.90;;;;;;5044209;28;20033;-73
2024/03/10 10:46:10;;;;;;;2.28;1.85;;;10.00;99.90;;;;;;5056151;28;20043;-72
2024/03/10 10:48:37;;;;;;;3.35;2.35;;;10.00;99.90;;;;;;5077945;28;20034;-75
2024/03/10 10:51:09;;;;;;;3.58;2.22;;;10.10;99.90;;;;;;5067137;28;20070;-73
2024/03/10 10:53:41;;;;;;;2.70;2.20;;;10.00;99.90;;;;;;5061809;28;20292;-74
2024/03/10 10:56:11;;;;;;;2.55;2.10;;;10.00;99.90;;;;;;5063584;28;20027;-74
2024/03/10 10:58:37;;;;;;;2.55;2.13;;;10.10;99.90;;;;;;5064578;28;20035;-73
2024/03/10 11:01:04;;;;;;;4.15;2.42;;;10.10;99.90;;;;;;5065946;28;20025;-73
2024/03/10 11:03:36;;;;;;;2.95;2.40;;;10.10;99.90;;;;;;5068314;28;20432;-72
2024/03/10 11:06:01;;;;;;;2.70;2.30;;;10.00;99.90;;;;;;5066866;28;20028;-72
2024/03/10 11:08:41;;;;;;;2.95;2.20;;;10.10;99.90;;;;;;5064034;28;20289;-72
2024/03/10 11:11:35;;;;;;;3.45;2.63;;;10.10;99.90;;;;;;5057985;28;20021;-75
2024/03/10 11:14:04;;;;;;;3.05;2.20;;;10.20;99.90;;;;;;5059536;28;20028;-73
2024/03/10 11:16:34;;;;;;;2.30;2.10;;;10.30;99.90;;;;;;5068671;28;20038;-72
2024/03/10 11:19:24;;;;;;;2.20;1.90;;;10.50;99.90;;;;;;5064460;28;20279;-72
2024/03/10 11:22:02;;;;;;;2.70;1.88;;;10.70;99.90;;;;;;5069229;28;20026;-77
2024/03/10 11:24:39;;;;;;;2.55;1.83;;;10.80;99.90;;;;;;5057805;28;20089;-73
2024/03/10 11:27:19;;;;;;;3.22;2.20;;;10.90;99.90;;;;;;5060550;28;20021;-72
2024/03/10 11:29:45;;;;;;;2.03;1.85;;;11.00;99.90;;;;;;5063597;28;20039;-73
2024/03/10 11:32:47;;;;;;;2.17;1.90;;;11.00;99.90;;;;;;5061218;28;20033;-72
2024/03/10 11:35:17;;;;;;;2.33;1.88;;;11.00;99.50;;;;;;5079710;28;20027;-76
2024/03/10 11:37:43;;;;;;;2.50;1.95;;;11.00;99.90;;;;;;5059752;28;20037;-79
2024/03/10 11:40:15;;;;;;;2.22;1.63;;;11.10;96.90;;;;;;5050578;28;20028;-77
2024/03/10 11:42:41;;;;;;;1.73;1.60;;;11.20;93.70;;;;;;5048201;28;20573;-77
2024/03/10 11:45:12;;;;;;;2.22;1.70;;;11.20;93.40;;;;;;5048728;28;20029;-77
2024/03/10 11:47:37;;;;;;;2.45;1.52;;;11.20;98.20;;;;;;5052988;28;20055;-76
2024/03/10 11:50:09;;;;;;;2.35;2.15;;;11.30;94.60;;;;;;5048134;28;20053;-75
2024/03/10 11:52:35;;;;;;;2.17;1.80;;;11.30;97.50;;;;;;5049109;28;20809;-72
2024/03/10 11:55:10;;;;;;;3.20;2.20;;;11.30;99.90;;;;;;5047359;28;20104;-73
2024/03/10 11:57:40;;;;;;;2.08;1.60;;;11.30;99.90;;;;;;5043049;28;20036;-73
2024/03/10 12:00:15;;;;;;;3.83;1.70;;;11.30;99.90;;;;;;5042399;28;20029;-74
2024/03/10 12:02:44;;;;;;;2.25;1.70;;;11.30;99.90;;;;;;5033045;28;20036;-73
2024/03/10 12:05:19;;;;;;;2.03;1.60;;;11.40;99.90;;;;;;5047325;28;20035;-73
2024/03/10 12:07:53;;;;;;;2.88;1.80;;;11.40;99.10;;;;;;5049580;28;20032;-72
2024/03/10 12:10:20;;;;;;;1.80;1.70;;;11.40;99.40;;;;;;5049907;28;20653;-76
2024/03/10 12:12:52;;;;;;;1.80;1.70;;;11.40;99.90;;;;;;5048479;28;20025;-73
2024/03/10 12:15:25;;;;;;;2.10;1.83;;;11.40;98.40;;;;;;5048435;28;20036;-72
2024/03/10 12:17:57;;;;;;;2.80;1.80;;;11.50;98.70;;;;;;5063973;28;20038;-71
2024/03/10 12:20:59;;;;;;;2.67;2.15;;;11.50;99.90;;;;;;5051093;28;20051;-73
2024/03/10 12:23:55;;;;;;;2.05;1.73;;;11.60;99.90;;;;;;5047929;28;20144;-72
2024/03/10 12:26:40;;;;;;;3.50;2.00;;;11.70;99.90;;;;;;5028899;28;20080;-74
2024/03/10 12:29:09;;;;;;;2.05;1.50;;;11.80;98.50;;;;;;5031527;28;20041;-74
2024/03/10 12:31:38;;;;;;;1.60;1.50;;;11.90;97.80;;;;;;5046432;28;20438;-72
2024/03/10 12:34:07;;;;;;;1.98;1.77;;;11.90;99.90;;;;;;5051249;28;20017;-73
2024/03/10 12:36:36;;;;;;;2.63;1.60;;;11.90;98.60;;;;;;5049196;28;20048;-74
2024/03/10 12:39:27;;;;;;;1.42;1.33;;;11.90;95.30;;;;;;5051524;28;20044;-73
2024/03/10 12:42:42;;;;;;;;;;;;;;;;;;;;;
2024/03/10 12:45:48;;;;;;;2.58;1.90;;;12.00;93.60;;;;;;5051925;28;20104;-75
2024/03/10 12:48:14;;;;;;;3.42;2.13;;;12.00;94.20;;;;;;5044262;28;20055;-74
2024/03/10 12:50:40;;;;;;;2.75;1.83;;;12.00;93.30;;;;;;5044251;28;20032;-73
2024/03/10 12:56:20;;;;;;;3.30;1.88;;;11.90;97.90;;;;;;5027503;28;20029;-73
2024/03/10 12:58:51;;;;;;;2.03;1.70;;;11.80;97.70;;;;;;5049366;28;20067;-73
2024/03/10 13:01:21;;;;;;;2.08;1.90;;;11.90;97.60;;;;;;5041761;28;20044;-74
2024/03/10 13:03:47;;;;;;;2.10;1.67;;;11.90;98.20;;;;;;5039298;28;20045;-74
2024/03/10 13:06:14;;;;;;;2.63;1.77;;;11.90;98.30;;;;;;5047306;28;20032;-72
2024/03/10 13:08:41;;;;;;;2.55;1.67;;;11.90;98.80;;;;;;5053704;28;20039;-73
2024/03/10 13:11:06;;;;;;;1.90;1.77;;;11.90;98.70;;;;;;5051245;28;20084;-73
2024/03/10 13:13:32;;;;;;;2.53;1.70;;;11.90;98.70;;;;;;5048559;28;20386;-75
2024/03/10 13:16:04;;;;;;;2.95;2.25;;;12.00;99.90;;;;;;5051374;28;20501;-74
2024/03/10 13:18:47;;;;;;;;;;;;;;;;;;;;;
2024/03/10 13:21:36;;;;;;;2.30;1.88;;;12.00;99.90;;;;;;5046025;28;20088;-73
2024/03/10 13:24:02;;;;;;;1.80;1.70;;;11.90;97.40;;;;;;5050957;28;20040;-73
2024/03/10 13:26:29;;;;;;;2.40;1.80;;;11.90;97.10;;;;;;5051853;28;20128;-74
2024/03/10 13:28:55;;;;;;;2.10;1.63;;;11.90;99.50;;;;;;5052142;28;20029;-74
2024/03/10 13:31:22;;;;;;;1.92;1.73;;;11.80;98.50;;;;;;5046857;28;20029;-73
2024/03/10 13:33:49;;;;;;;2.10;1.80;;;11.80;99.20;;;;;;5048851;28;20043;-74